Time;durP1;ratioP1;P1;durP2;ratioP2;P2;SDS_P1;SDS_P2;PMS_P1;PMS_P2;Temp;Humidity;BMP_temperature;BMP_pressure;BME280_temperature;BME280_humidity;BME280_pressure;Samples;Min_cycle;Max_cycle;Signal;HPM_P1;HPM_P2
2022/08/22 00:00:14;;;;;;;9.50;5.50;;;14.40;67.20;;;;;;5000031;28;47242;-67
2022/08/22 00:02:45;;;;;;;18.47;5.40;;;14.50;54.70;;;;;;5000651;28;46812;-69
2022/08/22 00:05:55;;;;;;;13.33;4.93;;;14.80;58.50;;;;;;4999244;28;46523;-67
2022/08/22 00:08:44;;;;;;;9.83;5.57;;;14.90;56.80;;;;;;4929111;28;46514;-67
2022/08/22 00:11:34;;;;;;;8.10;5.03;;;14.40;67.50;;;;;;4991386;28;46946;-68
2022/08/22 00:14:19;;;;;;;9.27;5.40;;;14.50;54.70;;;;;;4998643;28;46372;-67
2022/08/22 00:16:56;;;;;;;11.50;5.47;;;14.50;54.70;;;;;;4998093;28;45848;-68
2022/08/22 00:19:40;;;;;;;8.53;5.73;;;14.60;55.00;;;;;;5000865;28;46272;-68
2022/08/22 00:22:16;;;;;;;11.23;4.93;;;14.60;60.30;;;;;;4999997;28;47102;-67
2022/08/22 00:24:57;;;;;;;12.00;5.00;;;14.30;54.50;;;;;;4999652;28;46375;-67
2022/08/22 00:27:33;;;;;;;16.17;5.77;;;14.40;54.60;;;;;;4998437;28;46371;-69
2022/08/22 00:30:13;;;;;;;11.00;5.80;;;14.40;54.60;;;;;;4999804;28;46495;-68
2022/08/22 00:32:47;;;;;;;9.20;4.93;;;14.30;55.00;;;;;;4999977;28;46572;-69
2022/08/22 00:35:25;;;;;;;11.27;4.57;;;14.10;56.80;;;;;;4999605;28;46311;-67
2022/08/22 00:37:58;;;;;;;9.10;4.87;;;14.10;55.90;;;;;;4998569;28;46491;-67
2022/08/22 00:40:52;;;;;;;8.47;4.43;;;13.90;70.40;;;;;;4999573;28;46510;-66
2022/08/22 00:43:39;;;;;;;8.90;5.40;;;14.00;56.40;;;;;;5000198;28;46414;-67
2022/08/22 00:46:29;;;;;;;7.50;4.37;;;14.00;56.60;;;;;;4997485;28;46348;-67
2022/08/22 00:49:16;;;;;;;11.20;6.43;;;13.90;56.60;;;;;;4999637;28;45879;-66
2022/08/22 00:51:57;;;;;;;28.43;6.37;;;14.00;56.20;;;;;;4998960;28;46753;-68
2022/08/22 00:54:40;;;;;;;19.37;6.30;;;14.00;56.10;;;;;;4996849;28;47154;-68
2022/08/22 00:57:30;;;;;;;8.30;5.70;;;14.00;56.10;;;;;;4997784;28;46497;-68
2022/08/22 01:00:17;;;;;;;9.30;5.60;;;14.00;56.10;;;;;;4996546;28;46401;-67
2022/08/22 01:03:08;;;;;;;9.53;5.90;;;14.00;56.10;;;;;;4999857;28;46317;-67
2022/08/22 01:05:34;;;;;;;10.60;5.87;;;;;;;;;;4999908;28;46118;-68
2022/08/22 01:08:21;;;;;;;11.50;5.80;;;13.90;56.30;;;;;;4999807;28;46449;-67
2022/08/22 01:11:08;;;;;;;21.10;6.03;;;13.90;56.30;;;;;;4996966;28;46402;-67
2022/08/22 01:13:54;;;;;;;9.97;6.30;;;14.00;62.90;;;;;;4999125;28;46384;-67
2022/08/22 01:16:58;;;;;;;12.87;6.30;;;13.90;56.30;;;;;;4997772;28;47069;-67
2022/08/22 01:19:59;;;;;;;9.67;6.20;;;13.90;56.50;;;;;;4997529;28;46379;-67
2022/08/22 01:22:25;;;;;;;8.30;5.57;;;;;;;;;;4998509;28;45895;-68
2022/08/22 01:25:18;;;;;;;11.30;5.60;;;13.90;56.40;;;;;;5000394;28;46426;-69
2022/08/22 01:28:11;;;;;;;8.90;5.73;;;13.90;56.60;;;;;;4998112;28;48250;-67
2022/08/22 01:30:59;;;;;;;12.03;5.93;;;13.90;56.60;;;;;;4997291;28;46412;-67
2022/08/22 01:34:03;;;;;;;9.80;6.10;;;13.90;56.60;;;;;;5000251;28;46461;-66
2022/08/22 01:36:34;;;;;;;9.47;5.30;;;13.80;56.70;;;;;;4995142;28;46364;-67
2022/08/22 01:39:44;;;;;;;13.60;5.77;;;13.70;57.10;;;;;;4997375;28;46712;-69
2022/08/22 01:42:11;;;;;;;16.40;6.50;;;;;;;;;;4997714;28;46879;-67
2022/08/22 01:45:06;;;;;;;12.20;5.70;;;13.50;57.70;;;;;;4996784;28;46672;-67
2022/08/22 01:47:38;;;;;;;10.17;5.30;;;13.60;64.60;;;;;;4996966;28;46609;-67
2022/08/22 01:50:35;;;;;;;12.13;5.57;;;13.50;58.10;;;;;;4994863;28;48039;-68
2022/08/22 01:53:11;;;;;;;11.97;5.50;;;13.30;58.50;;;;;;5002268;28;45850;-68
2022/08/22 01:55:58;;;;;;;8.37;5.23;;;13.50;58.20;;;;;;4997557;28;46505;-67
2022/08/22 01:58:28;;;;;;;9.90;5.10;;;13.30;58.30;;;;;;4999102;28;46319;-66
2022/08/22 02:01:32;;;;;;;9.30;4.90;;;13.10;73.50;;;;;;4999864;28;46649;-67
2022/08/22 02:04:34;;;;;;;13.47;6.13;;;13.30;58.60;;;;;;4997797;28;46486;-66
2022/08/22 02:07:24;;;;;;;11.20;6.10;;;13.20;58.60;;;;;;4999758;28;46332;-68
2022/08/22 02:10:01;;;;;;;12.20;6.50;;;13.20;58.60;;;;;;5002347;28;46543;-69
2022/08/22 02:12:57;;;;;;;15.03;6.97;;;13.40;61.70;;;;;;4999647;28;46684;-67
2022/08/22 02:16:20;;;;;;;9.03;5.80;;;13.60;69.60;;;;;;4999987;28;46601;-68
2022/08/22 02:19:19;;;;;;;9.83;5.23;;;13.20;72.30;;;;;;4932546;28;46641;-66
2022/08/22 02:21:54;;;;;;;20.70;6.73;;;13.20;68.00;;;;;;5001137;28;46783;-67
2022/08/22 02:24:32;;;;;;;16.17;6.90;;;13.10;59.20;;;;;;4998783;28;47018;-68
2022/08/22 02:27:24;;;;;;;11.37;6.70;;;13.40;64.70;;;;;;5001209;28;46407;-68
2022/08/22 02:30:08;;;;;;;13.67;6.87;;;13.00;59.90;;;;;;4998895;28;46576;-68
2022/08/22 02:32:34;;;;;;;13.40;7.57;;;;;;;;;;5000417;28;46467;-68
2022/08/22 02:35:19;;;;;;;10.23;5.63;;;13.10;63.00;;;;;;5000634;28;47265;-68
2022/08/22 02:38:01;;;;;;;16.77;6.70;;;13.00;74.10;;;;;;5000505;28;45820;-68
2022/08/22 02:40:31;;;;;;;10.20;6.37;;;13.40;73.80;;;;;;4999233;28;46698;-67
2022/08/22 02:43:17;;;;;;;10.90;6.83;;;13.10;60.00;;;;;;5001444;28;45868;-69
2022/08/22 02:45:59;;;;;;;10.90;5.93;;;13.10;59.70;;;;;;5001487;28;46675;-68
2022/08/22 02:48:25;;;;;;;12.20;6.40;;;;;;;;;;4999219;28;46600;-68
2022/08/22 02:51:00;;;;;;;15.33;6.10;;;13.00;63.00;;;;;;5002244;28;46515;-67
2022/08/22 02:54:02;;;;;;;14.87;6.70;;;13.20;61.20;;;;;;5001353;28;46524;-69
2022/08/22 02:56:43;;;;;;;9.33;6.20;;;13.70;60.00;;;;;;5000386;28;46387;-68
2022/08/22 02:59:15;;;;;;;10.03;6.00;;;13.10;59.60;;;;;;5000660;28;46427;-67
2022/08/22 03:01:44;;;;;;;14.80;5.50;;;13.20;70.20;;;;;;4977038;28;46695;-68
2022/08/22 03:04:20;;;;;;;10.00;6.60;;;13.10;59.80;;;;;;5001111;28;46447;-67
2022/08/22 03:07:11;;;;;;;7.50;5.43;;;13.00;60.50;;;;;;5000126;28;46916;-68
2022/08/22 03:10:09;;;;;;;13.40;6.70;;;13.10;60.00;;;;;;4955021;28;46446;-67
2022/08/22 03:13:15;;;;;;;12.53;6.50;;;13.00;60.00;;;;;;5001140;28;45797;-66
2022/08/22 03:15:54;;;;;;;12.17;6.00;;;13.00;60.10;;;;;;5000942;28;46535;-68
2022/08/22 03:18:27;;;;;;;10.60;6.30;;;12.90;68.40;;;;;;5000343;28;47254;-66
2022/08/22 03:21:19;;;;;;;8.17;5.80;;;13.30;61.50;;;;;;5000440;28;46415;-67
2022/08/22 03:23:49;;;;;;;9.57;6.20;;;12.90;62.80;;;;;;4986768;28;46380;-69
2022/08/22 03:26:29;;;;;;;15.00;6.60;;;12.90;67.60;;;;;;5001657;28;46391;-67
2022/08/22 03:29:24;;;;;;;9.70;5.83;;;13.00;60.30;;;;;;4999153;28;46799;-67
2022/08/22 03:32:07;;;;;;;10.33;5.10;;;12.90;60.30;;;;;;4998775;28;46548;-67
2022/08/22 03:34:33;;;;;;;9.90;5.80;;;13.10;67.40;;;;;;5001524;28;46499;-68
2022/08/22 03:37:16;;;;;;;10.67;6.30;;;12.70;69.90;;;;;;4999919;28;46495;-67
2022/08/22 03:40:17;;;;;;;9.97;6.10;;;12.90;60.70;;;;;;4997972;28;47074;-68
2022/08/22 03:43:07;;;;;;;13.87;5.97;;;12.80;60.80;;;;;;4986571;28;46683;-68
2022/08/22 03:46:06;;;;;;;11.47;5.97;;;12.70;60.90;;;;;;5000081;28;46436;-69
2022/08/22 03:48:32;;;;;;;9.17;5.37;;;;;;;;;;4996909;28;46198;-66
2022/08/22 03:51:15;;;;;;;13.40;5.60;;;12.30;61.10;;;;;;5000415;28;46070;-68
2022/08/22 03:53:41;;;;;;;11.63;6.13;;;;;;;;;;4998944;28;45871;-67
2022/08/22 03:56:22;;;;;;;9.27;5.90;;;12.40;71.70;;;;;;4999772;28;46165;-66
2022/08/22 03:59:18;;;;;;;13.33;5.93;;;12.50;61.40;;;;;;4996525;28;46436;-66
2022/08/22 04:02:15;;;;;;;13.63;6.27;;;12.60;61.20;;;;;;5001075;28;46776;-67
2022/08/22 04:04:59;;;;;;;8.43;5.50;;;12.60;61.10;;;;;;4997916;28;46596;-67
2022/08/22 04:07:42;;;;;;;11.10;6.50;;;12.60;61.10;;;;;;5000080;28;45885;-67
2022/08/22 04:10:32;;;;;;;11.23;6.40;;;12.90;67.90;;;;;;5000960;28;46428;-66
2022/08/22 04:13:10;;;;;;;11.87;7.13;;;12.70;61.90;;;;;;4999671;28;46472;-68
2022/08/22 04:16:05;;;;;;;12.93;6.30;;;12.70;60.70;;;;;;4999319;28;46442;-68
2022/08/22 04:18:34;;;;;;;8.10;6.00;;;12.70;61.10;;;;;;4998596;28;46458;-67
2022/08/22 04:21:22;;;;;;;14.33;6.77;;;12.70;60.80;;;;;;4999483;28;46530;-68
2022/08/22 04:24:29;;;;;;;8.23;5.30;;;12.70;60.70;;;;;;4998849;28;46171;-69
2022/08/22 04:27:02;;;;;;;16.33;4.93;;;12.60;66.00;;;;;;4955849;28;46300;-67
2022/08/22 04:29:44;;;;;;;9.10;5.70;;;12.70;61.30;;;;;;4996789;28;46379;-68
2022/08/22 04:32:35;;;;;;;13.03;5.73;;;12.70;61.10;;;;;;5000749;28;46422;-68
2022/08/22 04:35:17;;;;;;;11.13;5.50;;;12.80;61.00;;;;;;4998434;28;46804;-69
2022/08/22 04:38:11;;;;;;;14.93;5.80;;;12.80;60.60;;;;;;4998764;28;46490;-69
2022/08/22 04:40:51;;;;;;;8.40;5.90;;;12.90;60.50;;;;;;4997784;28;46703;-69
2022/08/22 04:43:27;;;;;;;8.43;6.13;;;13.10;66.40;;;;;;4997606;28;45861;-67
2022/08/22 04:46:14;;;;;;;10.40;7.37;;;12.90;66.20;;;;;;4997942;28;47165;-66
2022/08/22 04:48:49;;;;;;;12.80;6.17;;;13.20;59.70;;;;;;4997092;28;46332;-67
2022/08/22 04:51:27;;;;;;;8.30;5.63;;;13.30;59.90;;;;;;4999789;28;46410;-67
2022/08/22 04:53:53;;;;;;;9.13;6.03;;;;;;;;;;4998603;28;46657;-69
2022/08/22 04:56:26;;;;;;;8.13;5.60;;;13.90;58.30;;;;;;5000521;28;47006;-68
2022/08/22 04:59:03;;;;;;;12.57;5.20;;;14.00;57.70;;;;;;4997219;28;46261;-68
2022/08/22 05:01:53;;;;;;;10.73;4.90;;;14.30;57.40;;;;;;5000698;28;46372;-69
2022/08/22 05:04:46;;;;;;;10.23;5.37;;;14.40;57.10;;;;;;4997698;28;46427;-67
2022/08/22 05:07:31;;;;;;;8.97;5.43;;;14.60;62.20;;;;;;4974179;28;46746;-67
2022/08/22 05:10:08;;;;;;;5.80;4.40;;;14.70;61.30;;;;;;4997893;28;46431;-67
2022/08/22 05:12:44;;;;;;;9.83;5.17;;;15.00;61.40;;;;;;4999855;28;46404;-67
2022/08/22 05:15:18;;;;;;;12.70;4.97;;;15.10;59.70;;;;;;4997980;28;46554;-67
2022/08/22 05:17:47;;;;;;;6.37;4.47;;;15.30;55.70;;;;;;4996797;28;46465;-69
2022/08/22 05:20:19;;;;;;;12.53;5.10;;;15.60;60.50;;;;;;4999375;28;45796;-67
2022/08/22 05:22:55;;;;;;;13.10;4.63;;;15.50;60.70;;;;;;4998015;28;46519;-69
2022/08/22 05:25:26;;;;;;;8.40;5.03;;;15.60;55.70;;;;;;4999979;28;46620;-67
2022/08/22 05:28:02;;;;;;;6.90;4.87;;;15.70;57.20;;;;;;5001922;28;47319;-68
2022/08/22 05:30:30;;;;;;;8.80;4.93;;;15.80;57.70;;;;;;5002072;28;46403;-69
2022/08/22 05:33:23;;;;;;;8.40;5.00;;;16.00;57.90;;;;;;5002021;28;46420;-67
2022/08/22 05:35:55;;;;;;;8.17;4.23;;;15.90;56.10;;;;;;5001219;28;46457;-68
2022/08/22 05:38:26;;;;;;;8.73;4.80;;;15.90;56.00;;;;;;5001182;28;47075;-67
2022/08/22 05:41:04;;;;;;;9.70;5.50;;;16.00;56.10;;;;;;5000818;28;46410;-69
2022/08/22 05:43:35;;;;;;;7.90;4.87;;;16.30;56.40;;;;;;4975777;28;46476;-67
2022/08/22 05:46:04;;;;;;;6.17;4.37;;;16.40;59.40;;;;;;5000971;28;46444;-67
2022/08/22 05:48:40;;;;;;;9.27;4.80;;;16.90;55.40;;;;;;4999494;28;46301;-67
2022/08/22 05:51:35;;;;;;;8.80;4.93;;;17.00;55.50;;;;;;4999460;28;46449;-68
2022/08/22 05:54:12;;;;;;;8.27;4.70;;;16.80;56.00;;;;;;5001026;28;46450;-68
2022/08/22 05:56:43;;;;;;;17.30;5.50;;;16.90;60.10;;;;;;5001027;28;46489;-67
2022/08/22 05:59:26;;;;;;;13.20;4.90;;;18.70;58.50;;;;;;5000976;28;46376;-67
2022/08/22 06:02:04;;;;;;;7.97;4.27;;;19.60;54.30;;;;;;5001231;28;46445;-67
2022/08/22 06:04:44;;;;;;;6.63;4.30;;;20.40;48.80;;;;;;5001356;28;46411;-69
2022/08/22 06:07:33;;;;;;;8.93;4.50;;;21.10;47.60;;;;;;5002227;28;46714;-68
2022/08/22 06:10:02;;;;;;;6.20;3.77;;;22.10;48.80;;;;;;5003033;28;46574;-67
2022/08/22 06:12:42;;;;;;;7.37;4.10;;;22.60;44.70;;;;;;5002049;28;46347;-68
2022/08/22 06:15:39;;;;;;;7.17;3.53;;;23.10;46.10;;;;;;5001781;28;46446;-68
2022/08/22 06:18:10;;;;;;;5.83;3.57;;;23.10;40.10;;;;;;4962500;28;46626;-69
2022/08/22 06:20:51;;;;;;;6.07;3.87;;;23.60;38.20;;;;;;4997675;28;47350;-70
2022/08/22 06:23:25;;;;;;;13.20;4.53;;;23.50;39.40;;;;;;5000657;28;46618;-67
2022/08/22 06:25:53;;;;;;;7.03;3.97;;;24.40;36.70;;;;;;5001131;28;46323;-68
2022/08/22 06:28:24;;;;;;;8.20;4.70;;;23.80;32.40;;;;;;5000324;28;46649;-68
2022/08/22 06:30:52;;;;;;;8.93;4.57;;;22.50;35.30;;;;;;4999588;28;46684;-68
2022/08/22 06:33:24;;;;;;;9.50;4.20;;;21.60;41.70;;;;;;5000331;28;46461;-69
2022/08/22 06:36:29;;;;;;;9.00;4.33;;;20.70;39.80;;;;;;4999444;28;46481;-68
2022/08/22 06:39:21;;;;;;;7.90;4.57;;;20.50;40.40;;;;;;4996953;28;46582;-66
2022/08/22 06:41:53;;;;;;;7.40;4.70;;;21.30;41.00;;;;;;4999541;28;46458;-64
2022/08/22 06:44:24;;;;;;;16.10;4.37;;;21.50;38.70;;;;;;5000296;28;46439;-66
2022/08/22 06:46:57;;;;;;;8.13;4.63;;;21.80;38.30;;;;;;5003373;28;46447;-65
2022/08/22 06:49:25;;;;;;;9.90;4.80;;;20.80;36.60;;;;;;4999531;28;46059;-64
2022/08/22 06:51:51;;;;;;;10.80;5.43;;;;;;;;;;4997770;28;46596;-66
2022/08/22 06:54:21;;;;;;;6.93;4.90;;;20.20;38.50;;;;;;4999147;28;46837;-65
2022/08/22 06:56:49;;;;;;;9.43;5.03;;;19.90;41.90;;;;;;4998528;28;46409;-69
2022/08/22 06:59:21;;;;;;;9.90;5.50;;;19.60;39.70;;;;;;4998782;28;46681;-69
2022/08/22 07:01:52;;;;;;;9.63;6.30;;;19.70;39.40;;;;;;4996370;28;47623;-66
2022/08/22 07:04:25;;;;;;;11.33;6.13;;;19.80;39.80;;;;;;4997674;28;46368;-66
2022/08/22 07:06:51;;;;;;;10.67;6.27;;;;;;;;;;4998926;28;46796;-67
2022/08/22 07:09:24;;;;;;;11.20;6.40;;;20.20;38.30;;;;;;4999246;28;46553;-68
2022/08/22 07:11:51;;;;;;;11.07;6.77;;;20.10;42.70;;;;;;4995556;28;47699;-66
2022/08/22 07:14:43;;;;;;;11.20;7.37;;;20.10;38.80;;;;;;4999649;28;45815;-64
2022/08/22 07:17:30;;;;;;;11.13;7.43;;;19.70;39.30;;;;;;4997622;28;46305;-66
2022/08/22 07:20:15;;;;;;;10.37;6.80;;;19.70;40.30;;;;;;4996959;28;46973;-65
2022/08/22 07:23:01;;;;;;;10.67;7.60;;;19.70;40.00;;;;;;4996685;28;46752;-65
2022/08/22 07:25:28;;;;;;;9.37;6.90;;;20.00;39.60;;;;;;4998885;28;46372;-68
2022/08/22 07:28:15;;;;;;;9.03;6.67;;;20.20;39.10;;;;;;4997792;28;46456;-67
2022/08/22 07:30:51;;;;;;;12.83;8.13;;;20.40;38.70;;;;;;4997006;28;45899;-67
2022/08/22 07:33:47;;;;;;;12.23;7.20;;;20.40;38.80;;;;;;4996115;28;46624;-68
2022/08/22 07:36:42;;;;;;;17.37;7.57;;;20.10;40.80;;;;;;4995244;28;46519;-68
2022/08/22 07:39:27;;;;;;;11.40;7.70;;;20.30;43.30;;;;;;4999290;28;46501;-69
2022/08/22 07:42:11;;;;;;;10.27;7.40;;;20.20;40.20;;;;;;4997229;28;46340;-67
2022/08/22 07:44:38;;;;;;;15.13;8.33;;;;;;;;;;4999125;28;46112;-67
2022/08/22 07:47:15;;;;;;;15.13;8.23;;;19.90;44.40;;;;;;4997628;28;46520;-66
2022/08/22 07:50:06;;;;;;;13.47;8.90;;;20.50;40.30;;;;;;4996097;28;46375;-67
2022/08/22 07:52:41;;;;;;;11.80;7.50;;;20.80;44.80;;;;;;4998101;28;46459;-68
2022/08/22 07:55:19;;;;;;;13.53;9.00;;;20.90;44.40;;;;;;4996914;28;46376;-69
2022/08/22 07:58:12;;;;;;;12.70;9.23;;;21.10;43.60;;;;;;4998033;28;46444;-69
2022/08/22 08:00:43;;;;;;;17.23;10.30;;;20.90;43.10;;;;;;4992613;28;46434;-67
2022/08/22 08:03:11;;;;;;;13.57;8.83;;;21.30;40.00;;;;;;4999352;28;46894;-68
2022/08/22 08:05:39;;;;;;;12.33;8.27;;;21.60;39.60;;;;;;4999598;28;46466;-68
2022/08/22 08:08:20;;;;;;;21.10;9.43;;;21.80;39.00;;;;;;4998246;28;46511;-67
2022/08/22 08:10:48;;;;;;;14.50;8.90;;;21.40;41.40;;;;;;4995851;28;46369;-65
2022/08/22 08:13:20;;;;;;;13.43;8.43;;;21.80;42.10;;;;;;4998792;28;46555;-68
2022/08/22 08:15:46;;;;;;;16.10;8.33;;;;;;;;;;4996072;28;46720;-68
2022/08/22 08:18:18;;;;;;;11.00;6.80;;;22.20;42.30;;;;;;4998911;28;46301;-67
2022/08/22 08:20:48;;;;;;;11.33;6.80;;;22.20;38.10;;;;;;4997035;28;46471;-67
2022/08/22 08:23:18;;;;;;;10.43;6.17;;;;;;;;;;4996572;28;46329;-67
2022/08/22 08:25:56;;;;;;;11.90;6.27;;;22.60;39.20;;;;;;4997412;28;46463;-69
2022/08/22 08:28:34;;;;;;;10.20;6.30;;;22.10;35.90;;;;;;4994806;28;45976;-66
2022/08/22 08:31:25;;;;;;;10.40;5.67;;;21.90;36.00;;;;;;4996597;28;46317;-69
2022/08/22 08:34:19;;;;;;;11.00;5.40;;;22.10;39.40;;;;;;4998332;28;46380;-66
2022/08/22 08:36:54;;;;;;;9.80;5.03;;;22.30;36.90;;;;;;4997488;28;46515;-69
2022/08/22 08:39:31;;;;;;;6.70;4.53;;;22.70;34.20;;;;;;4997861;28;46399;-70
2022/08/22 08:42:31;;;;;;;9.13;4.37;;;22.40;34.80;;;;;;4996135;28;46476;-69
2022/08/22 08:45:21;;;;;;;5.50;4.07;;;22.80;32.40;;;;;;4999818;28;46463;-68
2022/08/22 08:48:08;;;;;;;8.90;3.63;;;23.00;32.10;;;;;;5000358;28;46321;-70
2022/08/22 08:50:54;;;;;;;11.50;4.43;;;22.90;30.90;;;;;;4981352;28;46408;-67
2022/08/22 08:53:45;;;;;;;6.77;3.60;;;23.00;32.70;;;;;;4999831;28;46337;-69
2022/08/22 08:56:34;;;;;;;8.80;3.37;;;22.90;30.50;;;;;;5001075;28;46374;-68
2022/08/22 08:59:21;;;;;;;5.00;3.07;;;22.90;28.60;;;;;;4988465;28;46460;-68
2022/08/22 09:02:19;;;;;;;7.07;3.63;;;22.60;27.90;;;;;;5001487;28;46787;-69
2022/08/22 09:04:45;;;;;;;9.40;3.50;;;22.70;29.40;;;;;;5003558;28;46261;-69
2022/08/22 09:07:43;;;;;;;7.77;3.23;;;22.90;25.70;;;;;;5002114;28;46423;-66
2022/08/22 09:10:52;;;;;;;6.27;2.83;;;22.90;26.90;;;;;;5003163;28;46119;-69
2022/08/22 09:13:41;;;;;;;5.37;3.10;;;22.90;24.00;;;;;;5001509;28;46466;-70
2022/08/22 09:16:18;;;;;;;11.30;3.73;;;23.00;26.00;;;;;;4982433;28;46387;-69
2022/08/22 09:19:01;;;;;;;6.60;2.70;;;23.10;24.30;;;;;;5006742;28;45866;-68
2022/08/22 09:22:01;;;;;;;6.20;3.00;;;23.50;22.90;;;;;;5000891;28;47284;-67
2022/08/22 09:24:51;;;;;;;6.73;2.70;;;23.40;23.20;;;;;;5002595;28;46437;-67
2022/08/22 09:27:44;;;;;;;7.10;2.97;;;23.50;23.10;;;;;;5004173;28;46356;-70
2022/08/22 09:30:15;;;;;;;10.33;3.13;;;23.60;22.40;;;;;;5002738;28;46432;-66
2022/08/22 09:32:59;;;;;;;6.60;2.50;;;23.50;21.50;;;;;;4996303;28;47655;-69
2022/08/22 09:35:49;;;;;;;7.23;2.33;;;23.60;22.70;;;;;;5002904;28;46444;-67
2022/08/22 09:38:15;;;;;;;9.97;3.10;;;;;;;;;;5000964;28;46340;-69
2022/08/22 09:40:58;;;;;;;9.30;2.50;;;23.50;22.60;;;;;;4996803;28;46400;-67
2022/08/22 09:43:57;;;;;;;12.70;3.27;;;23.50;21.20;;;;;;5000075;28;46380;-66
2022/08/22 09:46:28;;;;;;;5.90;2.67;;;23.50;20.20;;;;;;4981846;28;46503;-65
2022/08/22 09:49:09;;;;;;;10.30;2.90;;;23.60;20.10;;;;;;4981362;28;46358;-67
2022/08/22 09:51:46;;;;;;;7.20;2.70;;;23.70;20.00;;;;;;5000371;28;46296;-65
2022/08/22 09:54:53;;;;;;;5.20;2.40;;;24.00;19.80;;;;;;4998771;28;46593;-69
2022/08/22 09:57:32;;;;;;;8.03;2.93;;;24.40;20.70;;;;;;5000133;28;45911;-66
2022/08/22 10:00:08;;;;;;;5.93;3.00;;;24.40;20.50;;;;;;4997474;28;47343;-66
2022/08/22 10:02:47;;;;;;;7.23;3.10;;;24.40;19.20;;;;;;5000434;28;46495;-67
2022/08/22 10:05:30;;;;;;;7.90;2.93;;;24.70;20.20;;;;;;4999606;28;46956;-67
2022/08/22 10:08:17;;;;;;;5.50;2.90;;;24.60;19.10;;;;;;4997875;28;46522;-68
2022/08/22 10:10:48;;;;;;;8.43;2.87;;;24.30;18.80;;;;;;4994144;28;46763;-67
2022/08/22 10:13:47;;;;;;;9.57;2.87;;;24.10;18.80;;;;;;5000862;28;46443;-67
2022/08/22 10:16:35;;;;;;;11.90;3.20;;;24.30;20.20;;;;;;4998916;28;47255;-69
2022/08/22 10:19:21;;;;;;;6.73;2.53;;;24.30;20.80;;;;;;5000717;28;46468;-67
2022/08/22 10:22:14;;;;;;;11.30;3.90;;;23.80;18.50;;;;;;4996726;28;46504;-67
2022/08/22 10:24:57;;;;;;;6.23;2.50;;;23.90;18.30;;;;;;4997754;28;46605;-68
2022/08/22 10:27:42;;;;;;;6.93;2.80;;;24.10;19.40;;;;;;5001026;28;46893;-67
2022/08/22 10:30:20;;;;;;;6.97;2.70;;;23.70;20.70;;;;;;4983521;28;46623;-66
2022/08/22 10:33:13;;;;;;;5.73;2.90;;;24.20;21.00;;;;;;4999480;28;46745;-66
2022/08/22 10:36:06;;;;;;;4.93;2.67;;;24.80;19.10;;;;;;4999843;28;46562;-67
2022/08/22 10:38:50;;;;;;;10.77;3.00;;;24.60;17.90;;;;;;5001693;28;46072;-67
2022/08/22 10:41:25;;;;;;;5.90;2.87;;;24.60;17.80;;;;;;4999427;28;46431;-68
2022/08/22 10:43:51;;;;;;;11.20;3.13;;;;;;;;;;4998868;28;46356;-67
2022/08/22 10:46:29;;;;;;;6.50;2.57;;;24.70;18.30;;;;;;4999341;28;46765;-64
2022/08/22 10:49:07;;;;;;;6.17;2.70;;;24.70;17.10;;;;;;5000010;28;47491;-68
2022/08/22 10:51:46;;;;;;;5.60;3.00;;;24.40;17.50;;;;;;4996533;28;46492;-66
2022/08/22 10:54:11;;;;;;;5.30;3.00;;;24.90;19.30;;;;;;5000954;28;46588;-68
2022/08/22 10:56:57;;;;;;;6.20;2.93;;;24.80;17.10;;;;;;5001145;28;46686;-68
2022/08/22 10:59:45;;;;;;;6.57;2.87;;;25.00;16.40;;;;;;5000693;28;46545;-66
2022/08/22 11:03:01;;;;;;;5.10;2.80;;;25.20;15.90;;;;;;5000263;28;46878;-67
2022/08/22 11:05:39;;;;;;;5.37;2.33;;;25.70;15.50;;;;;;5002140;28;46431;-68
2022/08/22 11:08:20;;;;;;;8.00;3.40;;;26.00;17.30;;;;;;5001731;28;46426;-67
2022/08/22 11:11:09;;;;;;;6.50;3.17;;;25.90;14.90;;;;;;4998605;28;46788;-69
2022/08/22 11:13:47;;;;;;;5.37;2.60;;;25.00;15.50;;;;;;5001187;28;47024;-68
2022/08/22 11:16:18;;;;;;;8.50;3.30;;;25.20;15.40;;;;;;5004024;28;46378;-69
2022/08/22 11:19:02;;;;;;;9.40;3.20;;;25.20;17.50;;;;;;5003720;28;46534;-68
2022/08/22 11:22:02;;;;;;;5.30;2.83;;;25.40;17.70;;;;;;4997934;28;46395;-65
2022/08/22 11:24:40;;;;;;;5.93;2.40;;;25.10;15.90;;;;;;4952762;28;46440;-68
2022/08/22 11:27:35;;;;;;;8.20;2.93;;;25.30;14.90;;;;;;5001153;28;46541;-66
2022/08/22 11:30:24;;;;;;;14.27;2.83;;;25.50;17.00;;;;;;4998540;28;46510;-69
2022/08/22 11:33:02;;;;;;;5.50;3.00;;;25.50;14.50;;;;;;4986984;28;46230;-69
2022/08/22 11:36:01;;;;;;;6.40;3.17;;;25.40;14.90;;;;;;4997911;28;46414;-68
2022/08/22 11:38:36;;;;;;;7.33;2.43;;;25.20;14.50;;;;;;4997227;28;46449;-67
2022/08/22 11:41:35;;;;;;;4.27;2.27;;;25.70;15.40;;;;;;4993947;28;45840;-68
2022/08/22 11:44:11;;;;;;;9.23;3.20;;;25.70;14.10;;;;;;4999704;28;46345;-68
2022/08/22 11:46:41;;;;;;;7.43;2.97;;;25.80;14.00;;;;;;4999366;28;46552;-69
2022/08/22 11:49:58;;;;;;;9.17;2.50;;;25.60;13.70;;;;;;4999623;28;46431;-67
2022/08/22 11:52:41;;;;;;;5.70;2.63;;;25.90;13.60;;;;;;4991833;28;46525;-66
2022/08/22 11:55:18;;;;;;;10.17;3.00;;;26.20;13.60;;;;;;4997737;28;47245;-69
2022/08/22 11:58:08;;;;;;;9.50;3.00;;;26.20;12.80;;;;;;4997725;28;46414;-67
2022/08/22 12:00:51;;;;;;;6.80;2.57;;;26.10;13.50;;;;;;4994935;28;45919;-67
2022/08/22 12:03:41;;;;;;;5.93;2.40;;;25.60;15.10;;;;;;4993553;28;46479;-67
2022/08/22 12:06:38;;;;;;;6.03;2.10;;;25.70;13.30;;;;;;4997359;28;46439;-67
2022/08/22 12:09:12;;;;;;;6.23;2.73;;;25.50;14.20;;;;;;4998952;28;46366;-66
2022/08/22 12:12:01;;;;;;;6.50;2.53;;;24.70;15.70;;;;;;4990057;28;46521;-66
2022/08/22 12:14:49;;;;;;;4.70;2.50;;;24.60;13.70;;;;;;4994325;28;46512;-65
2022/08/22 12:17:41;;;;;;;5.13;2.40;;;24.30;13.90;;;;;;4992544;28;46466;-66
2022/08/22 12:20:46;;;;;;;7.20;2.70;;;24.50;14.20;;;;;;4992703;28;46431;-66
2022/08/22 12:23:54;;;;;;;4.40;2.13;;;24.80;13.90;;;;;;4988210;28;46646;-66
2022/08/22 12:26:20;;;;;;;5.03;2.43;;;;;;;;;;4995315;28;46722;-66
2022/08/22 12:29:07;;;;;;;4.80;2.63;;;24.90;12.20;;;;;;4994162;28;47138;-68
2022/08/22 12:32:05;;;;;;;7.33;2.93;;;24.40;12.80;;;;;;4992457;28;46411;-67
2022/08/22 12:34:58;;;;;;;5.60;2.60;;;24.00;13.30;;;;;;4993629;28;46832;-66
2022/08/22 12:37:49;;;;;;;5.10;2.30;;;24.00;13.60;;;;;;4993554;28;46383;-67
2022/08/22 12:40:27;;;;;;;9.23;2.77;;;24.30;13.50;;;;;;4993545;28;47124;-69
2022/08/22 12:43:10;;;;;;;8.33;2.50;;;24.60;13.40;;;;;;4992742;28;46442;-67
2022/08/22 12:46:08;;;;;;;7.30;2.73;;;24.90;12.90;;;;;;4995178;28;46439;-67
2022/08/22 12:49:18;;;;;;;5.90;2.83;;;24.60;12.30;;;;;;4994940;28;46419;-66
2022/08/22 12:51:44;;;;;;;8.00;2.17;;;;;;;;;;4985643;28;46468;-68
2022/08/22 12:54:59;;;;;;;12.93;2.93;;;24.70;11.90;;;;;;4995359;28;46981;-68
2022/08/22 12:57:40;;;;;;;5.93;2.57;;;24.60;11.90;;;;;;4982039;28;46258;-66
2022/08/22 13:00:36;;;;;;;7.80;2.30;;;24.50;12.60;;;;;;4993969;28;46660;-68
2022/08/22 13:03:10;;;;;;;11.07;2.80;;;24.50;12.20;;;;;;4984706;28;46491;-70
2022/08/22 13:05:39;;;;;;;6.00;2.43;;;24.20;12.80;;;;;;4995904;28;46463;-68
2022/08/22 13:08:29;;;;;;;4.80;2.33;;;24.10;13.80;;;;;;4993679;28;46428;-69
2022/08/22 13:11:00;;;;;;;6.63;2.40;;;24.40;14.50;;;;;;4988868;28;46691;-67
2022/08/22 13:13:32;;;;;;;5.80;2.20;;;24.40;12.30;;;;;;4991058;28;46471;-65
2022/08/22 13:16:03;;;;;;;6.57;2.27;;;24.20;13.40;;;;;;4994356;28;46454;-66
2022/08/22 13:18:36;;;;;;;8.73;2.33;;;23.90;12.50;;;;;;4991996;28;46503;-67
2022/08/22 13:21:05;;;;;;;6.87;2.47;;;24.20;14.90;;;;;;4993102;28;46468;-67
2022/08/22 13:23:36;;;;;;;5.53;2.13;;;24.10;12.40;;;;;;4990126;28;46430;-67
2022/08/22 13:26:18;;;;;;;5.30;2.30;;;24.10;11.60;;;;;;4994342;28;46471;-67
2022/08/22 13:28:56;;;;;;;6.27;2.30;;;24.40;13.50;;;;;;4993170;28;46708;-66
2022/08/22 13:31:27;;;;;;;4.97;2.13;;;24.50;11.40;;;;;;4991887;28;46668;-66
2022/08/22 13:33:58;;;;;;;6.27;2.50;;;24.60;11.30;;;;;;4993939;28;48050;-66
2022/08/22 13:36:25;;;;;;;4.20;2.03;;;24.60;11.00;;;;;;4994347;28;46519;-66
2022/08/22 13:39:13;;;;;;;4.20;2.10;;;24.50;10.30;;;;;;4994091;28;47020;-65
2022/08/22 13:41:49;;;;;;;5.27;2.00;;;24.40;11.60;;;;;;4974452;28;46458;-67
2022/08/22 13:44:28;;;;;;;4.73;1.60;;;24.10;11.30;;;;;;4995373;28;46483;-66
2022/08/22 13:47:03;;;;;;;6.20;2.00;;;24.50;10.30;;;;;;4997601;28;46407;-67
2022/08/22 13:49:48;;;;;;;5.47;1.90;;;24.70;10.10;;;;;;4997838;28;46478;-68
2022/08/22 13:52:22;;;;;;;4.20;1.90;;;24.30;11.30;;;;;;4997107;28;45806;-68
2022/08/22 13:55:10;;;;;;;3.00;1.67;;;24.40;8.90;;;;;;5000120;28;47306;-69
2022/08/22 13:57:41;;;;;;;3.63;1.70;;;24.40;8.10;;;;;;4980777;28;45777;-68
2022/08/22 14:00:25;;;;;;;2.70;1.67;;;24.30;9.10;;;;;;4998943;28;46348;-67
2022/08/22 14:03:03;;;;;;;7.13;2.17;;;24.80;10.70;;;;;;5000743;28;46511;-68
2022/08/22 14:05:37;;;;;;;4.30;1.60;;;24.50;8.20;;;;;;4998540;28;46646;-69